Time;durP1;ratioP1;P1;durP2;ratioP2;P2;SDS_P1;SDS_P2;PMS_P1;PMS_P2;Temp;Humidity;BMP_temperature;BMP_pressure;BME280_temperature;BME280_humidity;BME280_pressure;Samples;Min_cycle;Max_cycle;Signal;HPM_P1;HPM_P2
2022/06/20 00:00:50;;;;;;;10.30;3.83;;;;;;;17.93;75.24;100721.63;5024271;28;20107;-75
2022/06/20 00:03:22;;;;;;;17.52;4.68;;;;;;;17.97;75.95;100690.38;5025336;28;20240;-75
2022/06/20 00:05:48;;;;;;;17.50;4.10;;;;;;;18.18;74.21;100672.66;5023723;28;20076;-73
2022/06/20 00:08:16;;;;;;;13.15;3.88;;;;;;;18.10;74.38;100639.78;5023077;28;20053;-73
2022/06/20 00:10:44;;;;;;;16.60;5.00;;;;;;;18.05;75.34;100611.00;5024399;28;20103;-73
2022/06/20 00:13:20;;;;;;;10.32;3.92;;;;;;;17.83;74.96;100666.81;5022250;28;20111;-73
2022/06/20 00:15:49;;;;;;;10.75;3.85;;;;;;;17.97;74.91;100624.91;5022713;28;20457;-74
2022/06/20 00:18:18;;;;;;;13.18;3.83;;;;;;;17.85;75.58;100570.22;5022882;28;20050;-73
2022/06/20 00:20:45;;;;;;;13.13;4.53;;;;;;;17.91;76.82;100592.75;5023264;28;20091;-73
2022/06/20 00:23:11;;;;;;;8.63;3.95;;;;;;;17.68;77.08;100653.00;5024039;28;20069;-74
2022/06/20 00:25:39;;;;;;;13.75;5.40;;;;;;;17.46;77.32;100706.06;5023406;28;20045;-74
2022/06/20 00:28:05;;;;;;;12.63;4.20;;;;;;;17.80;77.01;100710.34;5023836;28;20088;-74
2022/06/20 00:30:32;;;;;;;13.48;4.18;;;;;;;17.87;77.16;100710.69;5024143;28;20049;-74
2022/06/20 00:32:58;;;;;;;11.85;4.93;;;;;;;18.03;76.56;100723.53;5022574;28;20445;-74
2022/06/20 00:35:26;;;;;;;12.90;5.25;;;;;;;17.88;77.56;100738.91;5023182;28;20587;-74
2022/06/20 00:37:56;;;;;;;13.50;4.63;;;;;;;17.79;77.45;100761.72;5023875;28;20449;-74
2022/06/20 00:40:28;;;;;;;8.15;4.22;;;;;;;17.89;77.29;100783.00;5022121;28;20739;-75
2022/06/20 00:42:56;;;;;;;10.82;4.43;;;;;;;18.04;76.61;100784.41;5023455;28;20472;-75
2022/06/20 00:45:24;;;;;;;13.40;4.53;;;;;;;18.27;75.42;100770.09;5024923;28;20499;-75
2022/06/20 00:47:54;;;;;;;10.23;4.15;;;;;;;18.24;75.65;100756.25;5017937;28;22410;-75
2022/06/20 00:50:24;;;;;;;13.00;5.45;;;;;;;18.16;75.64;100748.91;5034943;28;20099;-75
2022/06/20 00:52:58;;;;;;;14.45;4.88;;;;;;;18.40;74.91;100754.00;5022990;28;20072;-75
2022/06/20 00:55:30;;;;;;;13.77;4.53;;;;;;;18.40;75.29;100783.22;5026625;28;20095;-75
2022/06/20 00:58:01;;;;;;;;;;;;;;;18.41;75.16;100784.88;5027868;28;20045;-75
2022/06/20 01:00:32;;;;;;;11.57;4.50;;;;;;;18.81;73.35;100767.28;5027166;28;20455;-75
2022/06/20 01:03:05;;;;;;;12.70;4.50;;;;;;;18.39;75.77;100718.63;5027072;28;20045;-75
2022/06/20 01:05:41;;;;;;;18.23;4.80;;;;;;;18.09;76.39;100718.56;5026716;28;20780;-75
2022/06/20 01:08:13;;;;;;;9.70;4.50;;;;;;;18.14;76.61;100719.03;5026712;28;20490;-75
2022/06/20 01:10:44;;;;;;;11.95;4.03;;;;;;;18.16;76.66;100701.16;5024794;28;20042;-75
2022/06/20 01:13:15;;;;;;;12.35;4.90;;;;;;;18.25;75.79;100700.38;5027960;28;20496;-75
2022/06/20 01:15:44;;;;;;;10.07;4.90;;;;;;;18.19;76.44;100695.56;5026973;28;20111;-75
2022/06/20 01:18:16;;;;;;;13.95;5.28;;;;;;;17.85;77.44;100689.56;5026458;28;20050;-75
2022/06/20 01:20:45;;;;;;;12.30;4.75;;;;;;;17.80;77.89;100720.13;5025710;28;20045;-75
2022/06/20 01:23:28;;;;;;;11.63;4.40;;;;;;;17.70;78.14;100737.75;5027551;28;20099;-75
2022/06/20 01:26:10;;;;;;;15.20;4.95;;;;;;;17.54;78.75;100743.41;5026016;28;20037;-75
2022/06/20 01:28:41;;;;;;;19.27;5.50;;;;;;;17.40;78.97;100731.28;5026442;28;20413;-75
2022/06/20 01:31:10;;;;;;;12.52;4.78;;;;;;;17.55;78.83;100738.97;5026112;28;20127;-75
2022/06/20 01:33:37;;;;;;;14.98;6.05;;;;;;;17.51;79.15;100747.13;5027442;28;20100;-75
2022/06/20 01:38:49;;;;;;;12.85;5.22;;;;;;;17.88;77.60;100742.41;5026652;28;20099;-75
2022/06/20 01:44:05;;;;;;;13.63;5.57;;;;;;;18.15;77.42;100747.22;5027509;28;20056;-75
2022/06/20 01:46:34;;;;;;;15.50;5.65;;;;;;;18.28;76.39;100705.44;5026441;28;20103;-75
2022/06/20 01:49:05;;;;;;;13.35;5.32;;;;;;;18.09;77.60;100686.72;5028359;28;20493;-75
2022/06/20 01:51:37;;;;;;;13.10;5.78;;;;;;;17.97;77.49;100690.38;5029427;28;20456;-76
2022/06/20 01:54:04;;;;;;;;;;;;;;;17.85;78.04;100680.78;5028203;28;20078;-75
2022/06/20 01:56:31;;;;;;;12.00;5.85;;;;;;;17.94;76.87;100672.06;5024728;28;19971;-76
2022/06/20 01:59:05;;;;;;;10.88;5.35;;;;;;;17.92;76.95;100676.66;5023924;28;20543;-75
2022/06/20 02:01:37;;;;;;;14.98;5.60;;;;;;;18.06;76.11;100684.31;5026612;28;20052;-76
2022/06/20 02:04:08;;;;;;;17.00;7.32;;;;;;;17.95;76.71;100687.88;5026343;28;20051;-76
2022/06/20 02:06:34;;;;;;;16.50;6.00;;;;;;;17.89;77.71;100687.50;5024869;28;20156;-76
2022/06/20 02:09:01;;;;;;;11.65;5.60;;;;;;;17.80;77.90;100688.28;5024689;28;20528;-76
2022/06/20 02:11:32;;;;;;;12.40;5.22;;;;;;;17.71;78.21;100691.69;5027386;28;20068;-76
2022/06/20 02:14:05;;;;;;;16.35;5.97;;;;;;;17.96;77.09;100684.22;5027079;28;20490;-76
2022/06/20 02:16:35;;;;;;;13.50;6.15;;;;;;;18.09;76.85;100659.31;5026071;28;20398;-76
2022/06/20 02:19:05;;;;;;;12.20;6.18;;;;;;;18.24;76.92;100656.22;5025858;28;20048;-76
2022/06/20 02:21:34;;;;;;;18.40;5.88;;;;;;;18.23;76.38;100646.56;5026701;28;20049;-75
2022/06/20 02:24:05;;;;;;;14.02;6.80;;;;;;;18.24;76.35;100624.38;5026143;28;20045;-75
2022/06/20 02:26:34;;;;;;;12.73;6.00;;;;;;;18.00;77.17;100616.69;5026115;28;20247;-75
2022/06/20 02:29:07;;;;;;;17.08;7.35;;;;;;;17.96;76.85;100622.34;5025916;28;20464;-75
2022/06/20 02:31:33;;;;;;;14.43;6.15;;;;;;;17.99;77.17;100622.13;5026284;28;20080;-76
2022/06/20 02:34:01;;;;;;;12.52;5.85;;;;;;;18.07;76.66;100627.59;5027406;28;20474;-76
2022/06/20 02:36:29;;;;;;;19.30;6.40;;;;;;;17.78;77.30;100621.25;5025545;28;20095;-75
2022/06/20 02:38:56;;;;;;;16.25;6.40;;;;;;;18.49;73.81;100617.78;5025058;28;20045;-76
2022/06/20 02:41:26;;;;;;;14.18;5.93;;;;;;;18.45;74.29;100595.13;5026126;28;20053;-76
2022/06/20 02:43:59;;;;;;;12.80;6.50;;;;;;;18.69;73.05;100581.56;5026390;28;20449;-76
2022/06/20 02:46:30;;;;;;;13.85;6.35;;;;;;;18.47;74.22;100566.66;5023404;28;20103;-76
2022/06/20 02:48:57;;;;;;;19.92;7.10;;;;;;;18.41;74.84;100565.34;5024130;28;20040;-76
2022/06/20 02:51:29;;;;;;;16.80;6.55;;;;;;;17.62;77.54;100571.34;5026739;28;20555;-75
2022/06/20 02:53:58;;;;;;;;;;;;;;;17.76;78.04;100580.78;5026232;28;20045;-75
2022/06/20 02:56:27;;;;;;;15.63;7.00;;;;;;;18.14;76.34;100580.19;5024956;28;19921;-75
2022/06/20 02:58:58;;;;;;;16.40;7.03;;;;;;;18.20;75.77;100585.81;5023992;28;20041;-75
2022/06/20 03:01:34;;;;;;;14.70;7.13;;;;;;;18.23;75.96;100588.19;5024801;28;20049;-75
2022/06/20 03:04:01;;;;;;;17.65;7.25;;;;;;;18.35;75.82;100600.41;5023215;28;20111;-75
2022/06/20 03:06:31;;;;;;;15.43;6.88;;;;;;;18.36;76.07;100594.13;5024498;28;20072;-75
2022/06/20 03:08:58;;;;;;;16.00;7.10;;;;;;;18.47;75.32;100571.97;5024505;28;20099;-75
2022/06/20 03:11:28;;;;;;;13.40;6.90;;;;;;;18.35;75.72;100573.03;5023903;28;20448;-75
2022/06/20 03:13:55;;;;;;;16.25;6.95;;;;;;;18.04;76.68;100582.75;5025437;28;20041;-75
2022/06/20 03:16:22;;;;;;;19.33;6.90;;;;;;;18.29;76.79;100577.03;5006745;28;20046;-75
2022/06/20 03:18:51;;;;;;;14.65;7.10;;;;;;;18.44;75.78;100562.44;5002926;28;20498;-75
2022/06/20 03:21:20;;;;;;;17.60;7.93;;;;;;;18.44;75.56;100556.28;5005853;28;20494;-75
2022/06/20 03:23:47;;;;;;;15.35;6.85;;;;;;;18.24;75.73;100579.25;5021976;28;20096;-75
2022/06/20 03:26:18;;;;;;;18.13;7.50;;;;;;;18.39;76.22;100575.28;5023819;28;20049;-75
2022/06/20 03:28:45;;;;;;;15.57;7.05;;;;;;;18.57;75.68;100569.38;5025899;28;20071;-75
2022/06/20 03:31:11;;;;;;;12.82;6.30;;;;;;;18.57;75.33;100564.91;5026245;28;20485;-75
2022/06/20 03:33:39;;;;;;;21.13;8.65;;;;;;;18.57;75.49;100559.59;5022855;28;20049;-75
2022/06/20 03:36:10;;;;;;;14.55;7.13;;;;;;;18.44;75.92;100550.97;5023797;28;20127;-75
2022/06/20 03:38:38;;;;;;;15.75;7.80;;;;;;;18.34;76.63;100529.69;5025301;28;20540;-75
2022/06/20 03:41:07;;;;;;;15.07;7.32;;;;;;;18.10;77.14;100515.94;5022523;28;20537;-75
2022/06/20 03:43:36;;;;;;;18.38;7.60;;;;;;;18.13;78.05;100526.28;5023565;28;20457;-75
2022/06/20 03:46:15;;;;;;;13.45;7.60;;;;;;;18.17;77.70;100543.59;5023605;28;20045;-75
2022/06/20 03:48:49;;;;;;;15.23;7.07;;;;;;;18.19;78.29;100535.50;5021161;28;20100;-75
2022/06/20 03:51:20;;;;;;;16.60;7.03;;;;;;;18.17;78.58;100517.06;5024156;28;20575;-75
2022/06/20 03:53:52;;;;;;;14.48;7.38;;;;;;;18.13;78.84;100522.78;5024961;28;20049;-75
2022/06/20 03:56:25;;;;;;;12.50;7.25;;;;;;;17.75;80.01;100542.78;5025450;28;20058;-75
2022/06/20 03:58:56;;;;;;;13.95;6.57;;;;;;;18.17;78.31;100542.75;5022865;28;20037;-74
2022/06/20 04:01:27;;;;;;;15.18;6.90;;;;;;;17.88;79.88;100537.31;5023481;28;20049;-74
2022/06/20 04:04:00;;;;;;;12.02;6.45;;;;;;;17.77;80.93;100545.34;5023316;28;20045;-74
2022/06/20 04:06:32;;;;;;;14.52;6.63;;;;;;;17.94;80.04;100566.81;5025199;28;20651;-74
2022/06/20 04:11:57;;;;;;;13.43;6.82;;;;;;;18.26;78.42;100627.72;5023047;28;20053;-74
2022/06/20 04:14:30;;;;;;;15.88;7.10;;;;;;;18.36;77.29;100657.84;5023625;28;20123;-74
2022/06/20 04:18:26;;;;;;;14.05;6.45;;;;;;;18.26;77.46;100674.66;5025185;28;20042;-74
2022/06/20 04:19:52;;;;;;;16.85;7.20;;;;;;;17.95;78.84;100710.91;5022362;28;20045;-74
2022/06/20 04:22:27;;;;;;;18.17;7.53;;;;;;;17.72;80.42;100749.91;5023456;28;20058;-74
2022/06/20 04:24:58;;;;;;;20.83;7.70;;;;;;;17.85;79.70;100774.47;5025392;28;20050;-75
2022/06/20 04:27:29;;;;;;;17.05;7.57;;;;;;;17.95;79.44;100793.13;5024417;28;20556;-75
2022/06/20 04:30:02;;;;;;;18.73;7.38;;;;;;;17.74;79.41;100797.50;5025937;28;20061;-76
2022/06/20 04:32:33;;;;;;;17.67;7.28;;;;;;;17.77;79.96;100784.88;5027003;28;20095;-77
2022/06/20 04:35:07;;;;;;;15.70;7.68;;;;;;;17.85;79.76;100787.72;5027825;28;20041;-77
2022/06/20 04:37:41;;;;;;;18.95;8.18;;;;;;;17.64;80.74;100776.19;5027404;28;20049;-77
2022/06/20 04:40:14;;;;;;;18.70;8.20;;;;;;;17.27;82.61;100767.66;5026787;28;20050;-77
2022/06/20 04:42:46;;;;;;;20.25;8.65;;;;;;;17.08;84.24;100759.47;5027739;28;20049;-77
2022/06/20 04:45:18;;;;;;;23.15;8.40;;;;;;;17.39;82.50;100756.09;5028735;28;20640;-77
2022/06/20 04:47:50;;;;;;;22.20;9.32;;;;;;;17.23;83.78;100765.38;5026590;28;20457;-77
2022/06/20 04:50:20;;;;;;;14.35;8.63;;;;;;;17.24;82.95;100783.81;5024812;28;20050;-77
2022/06/20 04:52:50;;;;;;;18.20;8.63;;;;;;;17.31;82.55;100803.56;5026509;28;20049;-76
2022/06/20 04:55:19;;;;;;;22.48;9.68;;;;;;;17.18;82.74;100807.31;5007618;28;20041;-77
2022/06/20 04:57:45;;;;;;;17.30;8.30;;;;;;;17.12;82.68;100821.84;5007948;28;20133;-77
2022/06/20 05:00:18;;;;;;;19.80;9.60;;;;;;;17.52;80.64;100782.44;5007174;28;20096;-77
2022/06/20 05:02:45;;;;;;;22.17;8.95;;;;;;;17.18;82.37;100577.63;5007607;28;20465;-76
2022/06/20 05:05:16;;;;;;;16.52;8.50;;;;;;;16.98;83.69;100541.31;5008054;28;20050;-76
2022/06/20 05:07:45;;;;;;;14.13;7.50;;;;;;;16.86;84.36;100468.13;5013757;28;20053;-75
2022/06/20 05:10:20;;;;;;;15.52;8.10;;;;;;;16.58;85.25;100398.09;5025407;28;20145;-75
2022/06/20 05:12:53;;;;;;;17.88;8.00;;;;;;;16.37;87.02;100490.59;5025658;28;20050;-76
2022/06/20 05:15:26;;;;;;;18.23;8.25;;;;;;;16.26;88.45;100564.69;5024405;28;20053;-76
2022/06/20 05:17:55;;;;;;;15.75;8.48;;;;;;;16.34;87.94;100572.03;5027884;28;20096;-76
2022/06/20 05:20:27;;;;;;;17.27;9.02;;;;;;;16.54;88.45;100617.16;5027129;28;20115;-75
2022/06/20 05:23:00;;;;;;;21.05;9.15;;;;;;;17.17;84.00;100651.94;5026430;28;20053;-75
2022/06/20 05:25:29;;;;;;;18.05;8.93;;;;;;;16.97;84.96;100656.16;5026587;28;20076;-75
2022/06/20 05:28:00;;;;;;;12.00;7.60;;;;;;;17.09;83.21;100644.59;5024951;28;20077;-75
2022/06/20 05:30:31;;;;;;;12.63;7.82;;;;;;;17.14;83.22;100642.44;5027404;28;20041;-75
2022/06/20 05:33:03;;;;;;;14.45;6.90;;;;;;;16.87;84.76;100644.63;5027902;28;20045;-75
2022/06/20 05:35:36;;;;;;;9.30;5.73;;;;;;;17.09;83.52;100627.84;5025261;28;20045;-76
2022/06/20 05:38:12;;;;;;;12.50;6.93;;;;;;;17.62;80.64;100607.59;5025315;28;20296;-76
2022/06/20 05:40:47;;;;;;;10.75;5.95;;;;;;;17.53;81.16;100607.34;5025393;28;20037;-76
2022/06/20 05:43:18;;;;;;;10.65;6.43;;;;;;;17.70;79.16;100602.50;5026407;28;20053;-76
2022/06/20 05:45:47;;;;;;;10.98;6.20;;;;;;;17.82;79.10;100614.72;5028502;28;20049;-76
2022/06/20 05:48:14;;;;;;;13.07;6.55;;;;;;;18.08;79.02;100599.25;5026431;28;20219;-76
2022/06/20 05:50:48;;;;;;;12.27;6.15;;;;;;;18.37;77.55;100582.53;5025356;28;20486;-76
2022/06/20 05:53:24;;;;;;;13.63;6.43;;;;;;;18.06;78.56;100593.25;5024057;28;20073;-76
2022/06/20 05:55:56;;;;;;;11.15;6.13;;;;;;;18.08;78.85;100584.19;5026867;28;20045;-76
2022/06/20 05:58:25;;;;;;;;;;;;;;;18.16;79.24;100576.41;5026382;28;20041;-76
2022/06/20 06:00:54;;;;;;;6.78;5.30;;;;;;;18.03;79.92;100570.50;5026492;28;20274;-76
2022/06/20 06:03:26;;;;;;;9.13;5.30;;;;;;;18.47;76.24;100514.41;5024101;28;20057;-76
2022/06/20 06:05:58;;;;;;;11.77;6.10;;;;;;;18.62;76.86;100524.66;5016961;28;20100;-76
2022/06/20 06:08:27;;;;;;;;;;;;;;;17.96;78.19;100510.94;5027571;28;20484;-76
2022/06/20 06:11:00;;;;;;;13.15;6.00;;;;;;;18.15;78.10;100487.16;5026546;28;19925;-76
2022/06/20 06:13:36;;;;;;;12.45;6.40;;;;;;;18.09;78.34;100505.44;5020674;28;20057;-76
2022/06/20 06:18:58;;;;;;;8.13;5.10;;;;;;;18.57;76.82;100485.25;5016515;28;20612;-76
2022/06/20 06:21:26;;;;;;;7.45;5.60;;;;;;;18.51;77.85;100515.00;5026589;28;20468;-76
2022/06/20 06:23:53;;;;;;;8.55;4.53;;;;;;;18.51;77.71;100538.91;5027081;28;20054;-75
2022/06/20 06:26:21;;;;;;;10.27;4.88;;;;;;;18.58;77.47;100520.59;5025544;28;20045;-75
2022/06/20 06:28:50;;;;;;;10.98;4.75;;;;;;;18.03;78.05;100524.53;5025916;28;20611;-75
2022/06/20 06:31:21;;;;;;;6.13;4.80;;;;;;;17.68;80.24;100531.03;5026219;28;20051;-75
2022/06/20 06:33:52;;;;;;;7.05;4.60;;;;;;;17.71;79.79;100582.97;5026472;28;20050;-75
2022/06/20 06:36:25;;;;;;;9.95;6.22;;;;;;;17.97;79.28;100578.94;5023897;28;20037;-75
2022/06/20 06:38:56;;;;;;;9.40;5.32;;;;;;;17.96;79.64;100591.38;5024926;28;20041;-74
2022/06/20 06:41:29;;;;;;;6.75;4.53;;;;;;;17.91;79.30;100606.00;5025490;28;20038;-74
2022/06/20 06:43:58;;;;;;;6.75;5.07;;;;;;;18.02;78.66;100618.38;5026112;28;20050;-74
2022/06/20 06:46:29;;;;;;;10.10;5.53;;;;;;;17.88;79.85;100603.63;5025176;28;20418;-75
2022/06/20 06:49:09;;;;;;;7.68;5.63;;;;;;;18.00;79.43;100576.03;5022248;28;20045;-75
2022/06/20 06:51:41;;;;;;;13.15;6.40;;;;;;;17.98;81.44;100604.53;5025391;28;20045;-74
2022/06/20 06:54:17;;;;;;;12.23;6.90;;;;;;;18.20;80.05;100620.31;5025048;28;20053;-75
2022/06/20 06:56:49;;;;;;;9.48;5.80;;;;;;;18.24;79.43;100629.69;5025662;28;20049;-75
2022/06/20 06:59:20;;;;;;;10.60;6.23;;;;;;;18.04;80.34;100649.09;5023893;28;20053;-76
2022/06/20 07:01:51;;;;;;;10.43;6.63;;;;;;;18.28;80.08;100662.97;5025818;28;20281;-76
2022/06/20 07:04:21;;;;;;;12.70;6.78;;;;;;;18.27;80.84;100673.69;5026151;28;20363;-76
2022/06/20 07:06:51;;;;;;;11.40;6.20;;;;;;;18.28;80.65;100673.59;5024869;28;20049;-76
2022/06/20 07:09:23;;;;;;;10.25;5.88;;;;;;;18.16;79.04;100671.09;5025067;28;20103;-76
2022/06/20 07:11:59;;;;;;;9.15;5.88;;;;;;;18.32;78.72;100669.69;5007565;28;20049;-76
2022/06/20 07:14:25;;;;;;;9.93;5.28;;;;;;;18.42;78.40;100673.25;5012024;28;20045;-76
2022/06/20 07:16:56;;;;;;;9.40;5.20;;;;;;;18.54;77.20;100684.66;5025479;28;20072;-76
2022/06/20 07:19:24;;;;;;;6.32;5.45;;;;;;;18.86;76.21;100689.84;5024853;28;20053;-76
2022/06/20 07:21:51;;;;;;;8.27;4.07;;;;;;;18.59;76.33;100684.28;5025230;28;20041;-76
2022/06/20 07:24:22;;;;;;;9.23;4.68;;;;;;;18.69;75.27;100679.84;5026716;28;20045;-76
2022/06/20 07:26:56;;;;;;;13.30;4.28;;;;;;;18.56;76.38;100676.56;5026332;28;20395;-76
2022/06/20 07:29:27;;;;;;;13.20;4.80;;;;;;;18.43;77.40;100664.31;5024674;28;20563;-76
2022/06/20 07:31:57;;;;;;;18.17;5.93;;;;;;;18.61;78.44;100637.16;5025845;28;20045;-76
2022/06/20 07:34:30;;;;;;;15.57;5.80;;;;;;;18.49;78.82;100593.91;5027120;28;20041;-76
2022/06/20 07:37:01;;;;;;;12.57;5.95;;;;;;;18.41;78.37;100607.84;5025597;28;20037;-75
2022/06/20 07:39:31;;;;;;;9.23;4.78;;;;;;;18.24;79.69;100624.38;5024180;28;20434;-75
2022/06/20 07:42:05;;;;;;;12.90;6.43;;;;;;;18.37;79.11;100626.81;5023774;28;20045;-75
2022/06/20 07:44:36;;;;;;;10.77;4.95;;;;;;;18.43;78.96;100613.88;5024197;28;20049;-74
2022/06/20 07:47:09;;;;;;;10.80;5.32;;;;;;;18.15;79.56;100630.47;5024485;28;20045;-74
2022/06/20 07:49:41;;;;;;;10.15;5.45;;;;;;;17.51;81.49;100656.19;5030640;28;20509;-74
2022/06/20 07:52:11;;;;;;;10.57;6.40;;;;;;;17.77;81.49;100654.06;5025158;28;20583;-75
2022/06/20 07:54:42;;;;;;;12.27;6.40;;;;;;;17.96;80.60;100657.69;5023414;28;20103;-75
2022/06/20 07:57:15;;;;;;;7.83;5.50;;;;;;;17.57;82.27;100654.84;5023534;28;20081;-75
2022/06/20 07:59:47;;;;;;;8.57;5.40;;;;;;;17.88;81.11;100661.97;5022876;28;20049;-74
2022/06/20 08:02:20;;;;;;;8.87;5.53;;;;;;;17.94;80.91;100680.03;5025565;28;20053;-75
2022/06/20 08:04:50;;;;;;;8.25;5.82;;;;;;;17.94;80.75;100674.72;5024440;28;20292;-75
2022/06/20 08:07:22;;;;;;;7.60;5.60;;;;;;;17.90;81.11;100679.44;5024589;28;20104;-75
2022/06/20 08:09:55;;;;;;;7.35;5.18;;;;;;;17.74;81.24;100681.66;5014253;28;20547;-76
2022/06/20 08:12:28;;;;;;;8.95;5.18;;;;;;;17.61;81.85;100683.66;5024464;28;20548;-75
2022/06/20 08:15:00;;;;;;;7.65;5.50;;;;;;;17.61;81.63;100661.59;5024043;28;20108;-75
2022/06/20 08:17:29;;;;;;;8.40;5.47;;;;;;;17.65;82.00;100652.44;5025148;28;20139;-75
2022/06/20 08:19:57;;;;;;;6.95;5.20;;;;;;;17.39;83.18;100650.06;5023601;28;20279;-75
2022/06/20 08:22:27;;;;;;;7.05;5.05;;;;;;;17.53;81.91;100652.44;5022806;28;20804;-75
2022/06/20 08:24:56;;;;;;;7.15;4.97;;;;;;;17.56;81.65;100658.44;5024222;28;20045;-75
2022/06/20 08:27:33;;;;;;;5.75;4.40;;;;;;;17.52;81.24;100649.88;5024544;28;20045;-75
2022/06/20 08:30:04;;;;;;;7.07;4.57;;;;;;;17.71;80.61;100638.66;5025019;28;20053;-75
2022/06/20 08:32:37;;;;;;;8.60;5.50;;;;;;;17.60;82.64;100633.38;5024831;28;20103;-75
2022/06/20 08:35:16;;;;;;;9.77;5.88;;;;;;;17.75;82.15;100630.31;5023942;28;20091;-75
2022/06/20 08:37:48;;;;;;;7.88;5.10;;;;;;;17.34;82.73;100638.13;5027197;28;20184;-75
2022/06/20 08:40:45;;;;;;;7.87;5.30;;;;;;;17.45;83.43;100638.09;5021516;28;20123;-75
2022/06/20 08:43:31;;;;;;;9.25;5.45;;;;;;;17.43;84.29;100653.31;5016698;28;20049;-75
2022/06/20 08:46:15;;;;;;;6.85;4.70;;;;;;;17.29;84.36;100672.16;5023708;28;20396;-75
2022/06/20 08:49:12;;;;;;;5.43;3.80;;;;;;;17.17;83.03;100662.53;5023469;28;20095;-75
2022/06/20 08:52:08;;;;;;;6.40;3.10;;;;;;;17.00;82.49;100675.28;5025275;28;20037;-75
2022/06/20 08:54:53;;;;;;;5.47;3.00;;;;;;;16.87;82.18;100690.47;5019079;28;20072;-75
2022/06/20 08:57:27;;;;;;;3.80;2.55;;;;;;;16.78;82.35;100698.28;5024417;28;20045;-75
2022/06/20 09:00:05;;;;;;;5.82;3.25;;;;;;;16.69;83.07;100693.72;5023966;28;20460;-74
2022/06/20 09:03:03;;;;;;;6.30;3.35;;;;;;;16.82;84.61;100681.19;5023986;28;20099;-74
2022/06/20 09:05:58;;;;;;;5.38;3.80;;;;;;;16.91;84.19;100691.09;5023337;28;20135;-74
2022/06/20 09:08:50;;;;;;;4.68;3.40;;;;;;;16.65;84.50;100702.88;5022144;28;20099;-74
2022/06/20 09:11:41;;;;;;;4.60;3.50;;;;;;;16.58;85.33;100706.94;5024592;28;20490;-75
2022/06/20 09:14:32;;;;;;;6.80;3.88;;;;;;;16.81;84.52;100711.31;5024126;28;20061;-75
2022/06/20 09:17:11;;;;;;;6.60;4.15;;;;;;;16.95;83.29;100711.06;5027467;28;20099;-75
2022/06/20 09:19:53;;;;;;;5.55;4.38;;;;;;;16.95;82.94;100716.38;5026790;28;20045;-75
2022/06/20 09:22:38;;;;;;;6.43;4.30;;;;;;;16.71;83.67;100727.06;5006931;28;20050;-74
2022/06/20 09:25:19;;;;;;;8.63;4.70;;;;;;;16.41;83.86;100738.16;5008455;28;20061;-75
2022/06/20 09:27:56;;;;;;;8.32;4.00;;;;;;;16.56;81.92;100744.09;5026085;28;20551;-74
2022/06/20 09:30:33;;;;;;;7.68;5.18;;;;;;;16.77;81.97;100739.00;5027965;28;20041;-75
2022/06/20 09:33:32;;;;;;;8.15;4.93;;;;;;;16.32;83.04;100757.38;5027481;28;20049;-74
2022/06/20 09:36:55;;;;;;;8.85;5.32;;;;;;;16.14;82.85;100773.78;5025846;28;20494;-74
2022/06/20 09:39:33;;;;;;;9.25;4.60;;;;;;;16.23;81.08;100791.59;5004855;28;20049;-75
2022/06/20 09:42:11;;;;;;;6.57;4.00;;;;;;;15.87;81.97;100805.75;5007545;28;20068;-75
2022/06/20 09:44:47;;;;;;;4.40;2.80;;;;;;;15.79;80.35;100797.50;5007617;28;20038;-74
2022/06/20 09:47:31;;;;;;;5.40;2.50;;;;;;;16.11;77.81;100795.19;5008502;28;20053;-74
2022/06/20 09:50:12;;;;;;;5.18;2.45;;;;;;;15.66;78.67;100789.63;5005455;28;20130;-74
2022/06/20 09:52:51;;;;;;;5.50;2.50;;;;;;;15.46;80.47;100783.09;5018371;28;20493;-74
2022/06/20 09:55:25;;;;;;;6.47;3.10;;;;;;;15.31;82.00;100773.59;5025655;28;20049;-74
2022/06/20 09:57:59;;;;;;;5.50;3.70;;;;;;;15.89;80.69;100772.13;5024969;28;20050;-74
2022/06/20 10:00:33;;;;;;;7.03;3.72;;;;;;;16.31;78.75;100774.22;5024544;28;20095;-75
2022/06/20 10:03:06;;;;;;;6.05;3.67;;;;;;;16.32;79.87;100786.50;5027193;28;20099;-75
2022/06/20 10:05:42;;;;;;;6.18;3.72;;;;;;;16.00;81.58;100782.75;5026646;28;20119;-74
2022/06/20 10:08:21;;;;;;;5.85;3.45;;;;;;;16.02;80.39;100783.47;5026882;28;20050;-74
2022/06/20 10:10:53;;;;;;;6.18;3.30;;;;;;;16.38;79.21;100771.94;5026286;28;20045;-74
2022/06/20 10:13:26;;;;;;;4.72;2.83;;;;;;;15.95;78.71;100784.88;5027055;28;20375;-74
2022/06/20 10:16:01;;;;;;;5.63;3.00;;;;;;;15.96;77.62;100779.44;5025137;28;20053;-74
2022/06/20 10:18:38;;;;;;;6.93;3.15;;;;;;;16.41;76.01;100777.84;5025593;28;20191;-74
2022/06/20 10:21:14;;;;;;;9.52;3.30;;;;;;;16.12;77.87;100771.25;5024500;28;20095;-74
2022/06/20 10:23:54;;;;;;;10.30;3.10;;;;;;;16.39;77.34;100768.34;5025694;28;20050;-74
2022/06/20 10:26:40;;;;;;;5.45;3.00;;;;;;;16.81;74.71;100775.72;5033430;28;20073;-75
2022/06/20 10:29:18;;;;;;;5.10;2.92;;;;;;;17.07;73.99;100775.50;5022537;28;20050;-75
2022/06/20 10:31:52;;;;;;;7.25;3.30;;;;;;;17.35;71.87;100773.19;5021511;28;20040;-75
2022/06/20 10:34:28;;;;;;;4.53;2.47;;;;;;;17.20;72.03;100755.84;5038394;28;20758;-75
2022/06/20 10:37:08;;;;;;;3.58;2.60;;;;;;;17.31;71.72;100760.31;5044543;28;20547;-75
2022/06/20 10:39:46;;;;;;;3.47;2.70;;;;;;;17.22;72.09;100763.69;5024416;28;20053;-75
2022/06/20 10:42:30;;;;;;;5.55;3.13;;;;;;;17.25;73.20;100769.59;5027187;28;20469;-75
2022/06/20 10:45:13;;;;;;;4.82;2.65;;;;;;;17.33;72.17;100761.03;5026946;28;20205;-75
2022/06/20 10:47:47;;;;;;;5.20;3.10;;;;;;;17.52;72.91;100771.84;5024581;28;20072;-75
2022/06/20 10:50:26;;;;;;;5.65;2.80;;;;;;;17.71;73.51;100774.75;5026302;28;20387;-75
2022/06/20 10:53:04;;;;;;;5.80;3.15;;;;;;;17.69;74.32;100781.16;5024804;28;20091;-75
2022/06/20 10:55:41;;;;;;;5.30;3.70;;;;;;;17.97;73.07;100799.16;5025903;28;20095;-76
2022/06/20 10:58:22;;;;;;;5.90;3.40;;;;;;;18.08;72.44;100817.69;5025901;28;20127;-76
2022/06/20 11:00:55;;;;;;;5.63;3.57;;;;;;;17.92;71.14;100811.97;5024907;28;20050;-76
2022/06/20 11:04:06;;;;;;;6.43;3.70;;;;;;;17.96;71.78;100800.09;5026967;28;20346;-76
2022/06/20 11:06:48;;;;;;;7.13;4.20;;;;;;;17.53;74.22;100803.53;4986671;28;20425;-76
2022/06/20 11:09:26;;;;;;;6.97;4.25;;;;;;;17.45;74.05;100811.25;5023121;28;20050;-76
2022/06/20 11:12:02;;;;;;;5.78;4.25;;;;;;;17.48;75.02;100818.13;5004960;28;20046;-76
2022/06/20 11:14:36;;;;;;;7.85;4.93;;;;;;;17.71;73.44;100818.97;5004702;28;20505;-76
2022/06/20 11:17:15;;;;;;;7.20;4.82;;;;;;;17.57;74.55;100824.53;5004842;28;20042;-76
2022/06/20 11:19:49;;;;;;;10.05;5.50;;;;;;;17.00;74.09;100841.31;5019765;28;20033;-76
2022/06/20 11:22:27;;;;;;;9.05;5.57;;;;;;;17.23;73.91;100842.22;5025563;28;20076;-76
2022/06/20 11:25:07;;;;;;;9.90;5.85;;;;;;;17.00;75.80;100851.94;5024935;28;20056;-76
2022/06/20 11:28:00;;;;;;;6.97;5.22;;;;;;;17.35;75.96;100858.00;5005270;28;20049;-76
2022/06/20 11:30:37;;;;;;;8.20;4.90;;;;;;;17.85;72.31;100850.53;5004222;28;20045;-76
2022/06/20 11:33:16;;;;;;;12.07;5.40;;;;;;;17.50;74.54;100850.66;5004734;28;20046;-76
2022/06/20 11:35:49;;;;;;;10.10;5.50;;;;;;;17.81;72.81;100852.59;5004931;28;20050;-76
2022/06/20 11:38:37;;;;;;;9.90;5.40;;;;;;;17.69;74.72;100850.09;5010250;28;20077;-76
2022/06/20 11:41:11;;;;;;;10.10;5.68;;;;;;;17.62;74.39;100846.25;5009770;28;20049;-76
2022/06/20 11:43:55;;;;;;;8.05;5.55;;;;;;;17.83;73.61;100840.06;5006005;28;20050;-76
2022/06/20 11:46:44;;;;;;;14.93;5.97;;;;;;;17.95;72.04;100843.56;5009053;28;20046;-76
2022/06/20 11:49:23;;;;;;;11.38;5.25;;;;;;;18.04;70.38;100832.16;5002750;28;20084;-76
2022/06/20 11:51:57;;;;;;;6.97;4.65;;;;;;;18.06;70.45;100846.19;5018055;28;20099;-76
2022/06/20 11:54:35;;;;;;;9.40;4.55;;;;;;;18.27;68.33;100835.59;5022417;28;20745;-76
2022/06/20 11:57:11;;;;;;;9.38;4.18;;;;;;;17.87;70.15;100833.56;4990549;28;20048;-76
2022/06/20 11:59:46;;;;;;;7.50;4.07;;;;;;;17.98;68.68;100840.66;5003768;28;20052;-76
2022/06/20 12:02:29;;;;;;;9.25;3.85;;;;;;;18.00;70.30;100828.09;5004111;28;20073;-76